Terminal Aerodrome Forecast
Issued by NWS

Home | Current Version | Previous Version | Text Only | Print | Product List | Glossary On
Versions: 1 2 3 4 5 6 7 8 9 10 11 12 13 14 15 16 17 18 19 20 21 22 23 24
171
FTUS46 KSGX 141720
TAFSAN
TAF
KSAN 141720Z 1418/1524 VRB06KT P6SM SKC
     FM142100 30009KT P6SM SKC
     FM150100 VRB04KT P6SM SKC WS010/05025KT
     FM150600 VRB06KT P6SM SKC=

USA.gov is the U.S. government's official web portal to all federal, state and local government web resources and services.